sensor_id;sensor_type;location;lat;lon;timestamp;pressure;altitude;pressure_sealevel;temperature;humidity
27958;BME280;15295;42.658;23.374;2023-05-07T00:02:17;94785.19;;;17.27;45.37
27958;BME280;15295;42.658;23.374;2023-05-07T00:04:44;94812.00;;;17.42;45.37
27958;BME280;15295;42.658;23.374;2023-05-07T00:07:13;94773.75;;;17.12;45.94
27958;BME280;15295;42.658;23.374;2023-05-07T00:09:40;94835.94;;;17.33;46.23
27958;BME280;15295;42.658;23.374;2023-05-07T00:12:07;94775.66;;;16.83;46.64
27958;BME280;15295;42.658;23.374;2023-05-07T00:14:34;94802.75;;;16.88;47.52
27958;BME280;15295;42.658;23.374;2023-05-07T00:17:00;94803.72;;;16.81;47.60
27958;BME280;15295;42.658;23.374;2023-05-07T00:19:29;94843.72;;;17.06;47.57
27958;BME280;15295;42.658;23.374;2023-05-07T00:21:55;94802.16;;;16.80;47.71
27958;BME280;15295;42.658;23.374;2023-05-07T00:24:22;94787.25;;;16.78;47.78
27958;BME280;15295;42.658;23.374;2023-05-07T00:26:51;94805.50;;;16.88;48.16
27958;BME280;15295;42.658;23.374;2023-05-07T00:29:22;94825.25;;;17.03;48.21
27958;BME280;15295;42.658;23.374;2023-05-07T00:31:49;94812.59;;;16.89;48.29
27958;BME280;15295;42.658;23.374;2023-05-07T00:34:18;94755.78;;;16.59;48.78
27958;BME280;15295;42.658;23.374;2023-05-07T00:36:44;94791.72;;;16.72;48.61
27958;BME280;15295;42.658;23.374;2023-05-07T00:39:12;94768.78;;;16.59;49.18
27958;BME280;15295;42.658;23.374;2023-05-07T00:41:39;94838.72;;;17.01;49.53
27958;BME280;15295;42.658;23.374;2023-05-07T00:44:07;94838.72;;;17.01;48.97
27958;BME280;15295;42.658;23.374;2023-05-07T00:46:33;94784.06;;;16.63;48.79
27958;BME280;15295;42.658;23.374;2023-05-07T00:49:04;94822.59;;;16.83;49.09
27958;BME280;15295;42.658;23.374;2023-05-07T00:51:32;94801.63;;;16.53;48.98
27958;BME280;15295;42.658;23.374;2023-05-07T00:54:08;94834.50;;;16.80;48.75
27958;BME280;15295;42.658;23.374;2023-05-07T00:56:37;94839.34;;;16.76;48.68
27958;BME280;15295;42.658;23.374;2023-05-07T00:59:06;94824.03;;;16.55;48.44
27958;BME280;15295;42.658;23.374;2023-05-07T01:01:32;94830.44;;;16.33;48.43
27958;BME280;15295;42.658;23.374;2023-05-07T01:04:07;94843.31;;;16.39;48.17
27958;BME280;15295;42.658;23.374;2023-05-07T01:06:33;94822.41;;;16.22;48.15
27958;BME280;15295;42.658;23.374;2023-05-07T01:09:02;94812.44;;;16.08;48.39
27958;BME280;15295;42.658;23.374;2023-05-07T01:11:32;94802.69;;;16.04;48.78
27958;BME280;15295;42.658;23.374;2023-05-07T01:13:58;94849.41;;;16.31;48.74
27958;BME280;15295;42.658;23.374;2023-05-07T01:16:25;94811.41;;;16.02;48.85
27958;BME280;15295;42.658;23.374;2023-05-07T01:18:53;94804.19;;;15.89;49.05
27958;BME280;15295;42.658;23.374;2023-05-07T01:21:25;94811.63;;;15.92;49.29
27958;BME280;15295;42.658;23.374;2023-05-07T01:23:52;94808.88;;;15.72;49.53
27958;BME280;15295;42.658;23.374;2023-05-07T01:26:23;94839.53;;;15.94;49.67
27958;BME280;15295;42.658;23.374;2023-05-07T01:28:56;94819.50;;;15.74;50.00
27958;BME280;15295;42.658;23.374;2023-05-07T01:31:24;94831.41;;;15.87;49.99
27958;BME280;15295;42.658;23.374;2023-05-07T01:34:01;94817.94;;;15.73;50.47
27958;BME280;15295;42.658;23.374;2023-05-07T01:36:40;94811.22;;;15.74;50.26
27958;BME280;15295;42.658;23.374;2023-05-07T01:39:31;94820.91;;;15.82;50.39
27958;BME280;15295;42.658;23.374;2023-05-07T01:41:56;94790.31;;;15.57;50.44
27958;BME280;15295;42.658;23.374;2023-05-07T01:44:24;94766.59;;;15.63;50.22
27958;BME280;15295;42.658;23.374;2023-05-07T01:46:54;94818.72;;;15.93;50.69
27958;BME280;15295;42.658;23.374;2023-05-07T01:49:23;94809.53;;;15.60;51.51
27958;BME280;15295;42.658;23.374;2023-05-07T01:51:53;94803.44;;;15.69;51.55
27958;BME280;15295;42.658;23.374;2023-05-07T01:54:35;94796.06;;;15.42;52.26
27958;BME280;15295;42.658;23.374;2023-05-07T01:57:02;94800.03;;;15.61;52.45
27958;BME280;15295;42.658;23.374;2023-05-07T01:59:28;94793.47;;;15.75;51.95
27958;BME280;15295;42.658;23.374;2023-05-07T02:01:53;94806.38;;;15.97;51.79
27958;BME280;15295;42.658;23.374;2023-05-07T02:04:19;94806.47;;;15.94;51.21
27958;BME280;15295;42.658;23.374;2023-05-07T02:06:45;94761.41;;;15.65;51.38
27958;BME280;15295;42.658;23.374;2023-05-07T02:09:11;94809.22;;;15.94;51.50
27958;BME280;15295;42.658;23.374;2023-05-07T02:11:39;94779.84;;;15.68;51.75
27958;BME280;15295;42.658;23.374;2023-05-07T02:14:11;94802.16;;;15.93;51.76
27958;BME280;15295;42.658;23.374;2023-05-07T02:16:36;94796.31;;;15.91;51.75
27958;BME280;15295;42.658;23.374;2023-05-07T02:19:06;94765.09;;;15.78;51.88
27958;BME280;15295;42.658;23.374;2023-05-07T02:21:31;94761.81;;;15.83;51.88
27958;BME280;15295;42.658;23.374;2023-05-07T02:23:56;94759.56;;;15.78;51.86
27958;BME280;15295;42.658;23.374;2023-05-07T02:26:22;94783.38;;;15.88;51.88
27958;BME280;15295;42.658;23.374;2023-05-07T02:28:47;94764.31;;;15.77;51.62
27958;BME280;15295;42.658;23.374;2023-05-07T02:31:13;94788.88;;;15.88;51.92
27958;BME280;15295;42.658;23.374;2023-05-07T02:33:43;94762.03;;;15.72;51.94
27958;BME280;15295;42.658;23.374;2023-05-07T02:36:10;94759.03;;;15.67;51.90
27958;BME280;15295;42.658;23.374;2023-05-07T02:38:41;94782.38;;;15.78;51.73
27958;BME280;15295;42.658;23.374;2023-05-07T02:41:12;94765.31;;;15.67;52.19
27958;BME280;15295;42.658;23.374;2023-05-07T02:43:38;94778.91;;;15.74;52.12
27958;BME280;15295;42.658;23.374;2023-05-07T02:46:06;94767.72;;;15.65;51.97
27958;BME280;15295;42.658;23.374;2023-05-07T02:48:33;94781.06;;;15.67;52.31
27958;BME280;15295;42.658;23.374;2023-05-07T02:50:59;94754.13;;;15.55;52.39
27958;BME280;15295;42.658;23.374;2023-05-07T02:53:25;94778.50;;;15.76;52.12
27958;BME280;15295;42.658;23.374;2023-05-07T02:56:02;94794.41;;;15.88;52.33
27958;BME280;15295;42.658;23.374;2023-05-07T02:58:28;94767.50;;;15.76;51.93
27958;BME280;15295;42.658;23.374;2023-05-07T03:00:54;94797.16;;;15.88;51.98
27958;BME280;15295;42.658;23.374;2023-05-07T03:03:25;94759.06;;;15.63;51.94
27958;BME280;15295;42.658;23.374;2023-05-07T03:05:52;94771.09;;;15.73;51.86
27958;BME280;15295;42.658;23.374;2023-05-07T03:08:18;94797.97;;;15.85;52.06
27958;BME280;15295;42.658;23.374;2023-05-07T03:10:45;94771.31;;;15.62;52.36
27958;BME280;15295;42.658;23.374;2023-05-07T03:13:11;94806.59;;;15.87;52.42
27958;BME280;15295;42.658;23.374;2023-05-07T03:15:37;94761.56;;;15.58;52.28
27958;BME280;15295;42.658;23.374;2023-05-07T03:18:03;94799.22;;;15.84;52.63
27958;BME280;15295;42.658;23.374;2023-05-07T03:20:28;94812.47;;;15.89;52.52
27958;BME280;15295;42.658;23.374;2023-05-07T03:22:55;94815.59;;;15.91;52.66
27958;BME280;15295;42.658;23.374;2023-05-07T03:25:21;94800.03;;;15.81;52.31
27958;BME280;15295;42.658;23.374;2023-05-07T03:27:46;94786.28;;;15.61;52.71
27958;BME280;15295;42.658;23.374;2023-05-07T03:30:13;94792.44;;;15.69;52.75
27958;BME280;15295;42.658;23.374;2023-05-07T03:32:38;94818.72;;;15.73;53.14
27958;BME280;15295;42.658;23.374;2023-05-07T03:35:05;94792.44;;;15.69;53.00
27958;BME280;15295;42.658;23.374;2023-05-07T03:37:31;94785.00;;;15.66;52.88
27958;BME280;15295;42.658;23.374;2023-05-07T03:40:00;94752.25;;;15.52;53.15
27958;BME280;15295;42.658;23.374;2023-05-07T03:42:30;94775.03;;;15.72;52.93
27958;BME280;15295;42.658;23.374;2023-05-07T03:44:56;94789.38;;;15.83;52.99
27958;BME280;15295;42.658;23.374;2023-05-07T03:47:22;94825.81;;;16.10;52.76
27958;BME280;15295;42.658;23.374;2023-05-07T03:49:48;94802.09;;;15.77;53.00
27958;BME280;15295;42.658;23.374;2023-05-07T03:52:18;94832.66;;;16.02;53.35
27958;BME280;15295;42.658;23.374;2023-05-07T03:54:49;94802.19;;;15.73;53.73
27958;BME280;15295;42.658;23.374;2023-05-07T03:57:23;94824.00;;;15.84;53.98
27958;BME280;15295;42.658;23.374;2023-05-07T04:00:07;94779.56;;;15.62;53.83
27958;BME280;15295;42.658;23.374;2023-05-07T04:02:34;94821.28;;;16.00;53.54
27958;BME280;15295;42.658;23.374;2023-05-07T04:04:59;94798.63;;;15.92;53.50
27958;BME280;15295;42.658;23.374;2023-05-07T04:07:25;94802.88;;;15.97;53.14
27958;BME280;15295;42.658;23.374;2023-05-07T04:09:51;94792.56;;;15.81;53.04
27958;BME280;15295;42.658;23.374;2023-05-07T04:12:16;94852.00;;;16.38;52.73
27958;BME280;15295;42.658;23.374;2023-05-07T04:14:43;94825.16;;;16.22;53.15
27958;BME280;15295;42.658;23.374;2023-05-07T04:17:09;94851.09;;;16.44;53.10
27958;BME280;15295;42.658;23.374;2023-05-07T04:19:36;94840.19;;;16.37;52.79
27958;BME280;15295;42.658;23.374;2023-05-07T04:22:02;94823.31;;;16.35;52.66
27958;BME280;15295;42.658;23.374;2023-05-07T04:24:32;94870.97;;;16.71;52.05
27958;BME280;15295;42.658;23.374;2023-05-07T04:27:02;94880.84;;;16.88;51.88
27958;BME280;15295;42.658;23.374;2023-05-07T04:29:40;94884.97;;;16.96;51.43
27958;BME280;15295;42.658;23.374;2023-05-07T04:32:09;94817.91;;;16.64;51.06
27958;BME280;15295;42.658;23.374;2023-05-07T04:34:39;94867.91;;;17.02;50.70
27958;BME280;15295;42.658;23.374;2023-05-07T04:37:07;94830.78;;;16.86;50.62
27958;BME280;15295;42.658;23.374;2023-05-07T04:39:32;94827.94;;;17.06;50.28
27958;BME280;15295;42.658;23.374;2023-05-07T04:42:01;94881.50;;;17.41;49.96
27958;BME280;15295;42.658;23.374;2023-05-07T04:44:28;94836.31;;;17.19;49.57
27958;BME280;15295;42.658;23.374;2023-05-07T04:47:05;94849.75;;;17.33;49.61
27958;BME280;15295;42.658;23.374;2023-05-07T04:49:32;94862.63;;;17.55;49.82
27958;BME280;15295;42.658;23.374;2023-05-07T04:52:00;94853.63;;;17.51;49.67
27958;BME280;15295;42.658;23.374;2023-05-07T04:54:28;94889.47;;;17.84;49.49
27958;BME280;15295;42.658;23.374;2023-05-07T04:56:54;94881.63;;;17.82;49.18
27958;BME280;15295;42.658;23.374;2023-05-07T04:59:21;94864.19;;;17.85;48.96
27958;BME280;15295;42.658;23.374;2023-05-07T05:01:49;94842.38;;;17.75;49.26
27958;BME280;15295;42.658;23.374;2023-05-07T05:04:15;94831.34;;;17.87;48.91
27958;BME280;15295;42.658;23.374;2023-05-07T05:06:42;94835.00;;;17.97;48.47
27958;BME280;15295;42.658;23.374;2023-05-07T05:09:10;94837.69;;;18.00;48.38
27958;BME280;15295;42.658;23.374;2023-05-07T05:11:39;94823.97;;;18.09;48.25
27958;BME280;15295;42.658;23.374;2023-05-07T05:14:16;94862.16;;;18.56;48.43
27958;BME280;15295;42.658;23.374;2023-05-07T05:16:44;94834.13;;;18.41;47.78
27958;BME280;15295;42.658;23.374;2023-05-07T05:19:14;94826.91;;;18.43;47.82
27958;BME280;15295;42.658;23.374;2023-05-07T05:21:42;94890.31;;;18.92;47.43
27958;BME280;15295;42.658;23.374;2023-05-07T05:24:30;94869.94;;;18.86;47.43
27958;BME280;15295;42.658;23.374;2023-05-07T05:26:58;94843.66;;;18.78;47.24
27958;BME280;15295;42.658;23.374;2023-05-07T05:29:28;94844.75;;;18.93;47.30
27958;BME280;15295;42.658;23.374;2023-05-07T05:31:58;94847.44;;;18.96;46.82
27958;BME280;15295;42.658;23.374;2023-05-07T05:34:27;94845.84;;;19.08;46.70
27958;BME280;15295;42.658;23.374;2023-05-07T05:36:52;94900.47;;;19.45;46.61
27958;BME280;15295;42.658;23.374;2023-05-07T05:39:39;94868.00;;;19.33;46.59
27958;BME280;15295;42.658;23.374;2023-05-07T05:42:38;94903.97;;;19.71;46.35
27958;BME280;15295;42.658;23.374;2023-05-07T05:45:07;94892.84;;;19.83;46.19
27958;BME280;15295;42.658;23.374;2023-05-07T05:47:44;94862.84;;;19.69;46.08
27958;BME280;15295;42.658;23.374;2023-05-07T05:50:15;94884.69;;;20.02;45.76
27958;BME280;15295;42.658;23.374;2023-05-07T05:53:36;94898.53;;;20.36;45.42
27958;BME280;15295;42.658;23.374;2023-05-07T05:56:02;94876.66;;;20.38;44.87
27958;BME280;15295;42.658;23.374;2023-05-07T05:58:33;94900.84;;;20.59;44.72
27958;BME280;15295;42.658;23.374;2023-05-07T06:00:59;94860.63;;;20.42;44.84
27958;BME280;15295;42.658;23.374;2023-05-07T06:03:27;94896.94;;;20.87;45.47
27958;BME280;15295;42.658;23.374;2023-05-07T06:05:53;94895.44;;;21.26;45.77
27958;BME280;15295;42.658;23.374;2023-05-07T06:08:18;94900.34;;;21.62;44.56
27958;BME280;15295;42.658;23.374;2023-05-07T06:10:48;94896.97;;;21.76;44.00
27958;BME280;15295;42.658;23.374;2023-05-07T06:13:14;94907.53;;;22.17;43.28
27958;BME280;15295;42.658;23.374;2023-05-07T06:15:40;94887.13;;;22.29;42.79
27958;BME280;15295;42.658;23.374;2023-05-07T06:18:06;94871.31;;;22.53;41.52
27958;BME280;15295;42.658;23.374;2023-05-07T06:20:36;94875.56;;;22.90;41.12
27958;BME280;15295;42.658;23.374;2023-05-07T06:25:30;94888.38;;;23.06;40.16
27958;BME280;15295;42.658;23.374;2023-05-07T06:27:55;94880.75;;;23.16;40.04
27958;BME280;15295;42.658;23.374;2023-05-07T06:30:21;94896.13;;;23.44;39.89
27958;BME280;15295;42.658;23.374;2023-05-07T06:32:46;94895.69;;;23.36;38.94
27958;BME280;15295;42.658;23.374;2023-05-07T06:35:12;94889.97;;;23.31;39.31
27958;BME280;15295;42.658;23.374;2023-05-07T06:37:38;94889.06;;;23.25;39.09
27958;BME280;15295;42.658;23.374;2023-05-07T06:40:05;94892.13;;;23.36;39.30
27958;BME280;15295;42.658;23.374;2023-05-07T06:42:32;94883.44;;;23.43;39.09
27958;BME280;15295;42.658;23.374;2023-05-07T06:44:57;94880.31;;;23.50;39.01
27958;BME280;15295;42.658;23.374;2023-05-07T06:47:22;94872.56;;;23.45;38.18
27958;BME280;15295;42.658;23.374;2023-05-07T06:49:48;94883.97;;;23.56;38.25
27958;BME280;15295;42.658;23.374;2023-05-07T06:52:13;94882.47;;;23.69;38.16
27958;BME280;15295;42.658;23.374;2023-05-07T06:54:39;94875.31;;;23.77;37.78
27958;BME280;15295;42.658;23.374;2023-05-07T06:57:04;94862.34;;;23.65;37.98
27958;BME280;15295;42.658;23.374;2023-05-07T06:59:29;94875.84;;;23.67;38.05
27958;BME280;15295;42.658;23.374;2023-05-07T07:01:55;94860.28;;;23.75;37.35
27958;BME280;15295;42.658;23.374;2023-05-07T07:04:21;94858.44;;;23.72;37.91
27958;BME280;15295;42.658;23.374;2023-05-07T07:06:48;94872.88;;;23.94;37.90
27958;BME280;15295;42.658;23.374;2023-05-07T07:09:13;94857.66;;;23.95;37.80
27958;BME280;15295;42.658;23.374;2023-05-07T07:11:39;94874.91;;;24.32;38.07
27958;BME280;15295;42.658;23.374;2023-05-07T07:14:08;94868.78;;;24.57;36.54
27958;BME280;15295;42.658;23.374;2023-05-07T07:16:56;94878.41;;;24.56;36.04
27958;BME280;15295;42.658;23.374;2023-05-07T07:19:26;94871.88;;;24.59;36.72
27958;BME280;15295;42.658;23.374;2023-05-07T07:21:51;94870.03;;;24.71;35.37
27958;BME280;15295;42.658;23.374;2023-05-07T07:24:17;94861.34;;;24.69;35.82
27958;BME280;15295;42.658;23.374;2023-05-07T07:26:46;94863.88;;;24.67;35.91
27958;BME280;15295;42.658;23.374;2023-05-07T07:29:24;94867.47;;;24.82;36.22
27958;BME280;15295;42.658;23.374;2023-05-07T07:31:51;94849.22;;;25.01;36.12
27958;BME280;15295;42.658;23.374;2023-05-07T07:34:19;94850.44;;;25.29;35.79
27958;BME280;15295;42.658;23.374;2023-05-07T07:36:44;94860.44;;;25.50;34.58
27958;BME280;15295;42.658;23.374;2023-05-07T07:39:19;94832.19;;;25.34;34.39
27958;BME280;15295;42.658;23.374;2023-05-07T07:41:49;94865.91;;;25.59;34.10
27958;BME280;15295;42.658;23.374;2023-05-07T07:44:24;94868.72;;;25.59;34.40
27958;BME280;15295;42.658;23.374;2023-05-07T07:46:49;94866.63;;;25.74;34.12
27958;BME280;15295;42.658;23.374;2023-05-07T07:49:16;94874.69;;;25.87;33.79
27958;BME280;15295;42.658;23.374;2023-05-07T07:51:41;94875.03;;;25.94;33.10
27958;BME280;15295;42.658;23.374;2023-05-07T07:54:07;94871.03;;;26.01;32.95
27958;BME280;15295;42.658;23.374;2023-05-07T07:56:33;94882.31;;;26.07;33.52
27958;BME280;15295;42.658;23.374;2023-05-07T07:59:01;94870.00;;;26.19;32.91
27958;BME280;15295;42.658;23.374;2023-05-07T08:01:35;94871.66;;;26.31;32.91
27958;BME280;15295;42.658;23.374;2023-05-07T08:04:00;94871.53;;;26.40;32.23
27958;BME280;15295;42.658;23.374;2023-05-07T08:06:28;94869.38;;;26.55;32.80
27958;BME280;15295;42.658;23.374;2023-05-07T08:08:54;94865.84;;;26.80;32.92
27958;BME280;15295;42.658;23.374;2023-05-07T08:11:20;94864.41;;;26.90;32.94
27958;BME280;15295;42.658;23.374;2023-05-07T08:13:46;94856.00;;;26.64;32.91
27958;BME280;15295;42.658;23.374;2023-05-07T08:16:12;94847.50;;;26.59;33.13
27958;BME280;15295;42.658;23.374;2023-05-07T08:18:37;94854.31;;;26.72;32.57
27958;BME280;15295;42.658;23.374;2023-05-07T08:21:22;94870.63;;;26.74;32.68
27958;BME280;15295;42.658;23.374;2023-05-07T08:23:58;94862.50;;;26.76;32.23
27958;BME280;15295;42.658;23.374;2023-05-07T08:26:24;94858.63;;;26.73;32.11
27958;BME280;15295;42.658;23.374;2023-05-07T08:28:49;94865.94;;;26.65;32.73
27958;BME280;15295;42.658;23.374;2023-05-07T08:31:16;94870.31;;;26.72;32.67
27958;BME280;15295;42.658;23.374;2023-05-07T08:33:41;94857.81;;;26.93;32.05
27958;BME280;15295;42.658;23.374;2023-05-07T08:36:07;94855.81;;;26.99;32.32
27958;BME280;15295;42.658;23.374;2023-05-07T08:38:32;94864.88;;;27.14;31.41
27958;BME280;15295;42.658;23.374;2023-05-07T08:40:58;94861.25;;;27.39;31.64
27958;BME280;15295;42.658;23.374;2023-05-07T08:43:26;94865.22;;;27.59;30.93
27958;BME280;15295;42.658;23.374;2023-05-07T08:45:53;94855.66;;;27.82;30.64
27958;BME280;15295;42.658;23.374;2023-05-07T08:48:25;94845.69;;;27.81;29.11
27958;BME280;15295;42.658;23.374;2023-05-07T08:50:51;94846.22;;;27.85;28.64
27958;BME280;15295;42.658;23.374;2023-05-07T08:53:17;94852.69;;;28.02;28.77
27958;BME280;15295;42.658;23.374;2023-05-07T08:55:43;94844.47;;;27.93;28.40
27958;BME280;15295;42.658;23.374;2023-05-07T08:58:08;94854.25;;;28.03;28.96
27958;BME280;15295;42.658;23.374;2023-05-07T09:00:36;94850.06;;;28.46;28.08
27958;BME280;15295;42.658;23.374;2023-05-07T09:03:02;94835.53;;;28.64;27.86
27958;BME280;15295;42.658;23.374;2023-05-07T09:05:28;94836.84;;;28.74;26.66
27958;BME280;15295;42.658;23.374;2023-05-07T09:07:58;94840.69;;;28.82;27.35
27958;BME280;15295;42.658;23.374;2023-05-07T09:10:25;94831.47;;;28.87;26.98
27958;BME280;15295;42.658;23.374;2023-05-07T09:12:51;94827.91;;;28.92;26.20
27958;BME280;15295;42.658;23.374;2023-05-07T09:15:17;94831.75;;;29.06;26.46
27958;BME280;15295;42.658;23.374;2023-05-07T09:17:43;94830.50;;;29.18;26.00
27958;BME280;15295;42.658;23.374;2023-05-07T09:20:09;94827.19;;;29.25;25.95
27958;BME280;15295;42.658;23.374;2023-05-07T09:22:37;94830.22;;;29.44;25.93
27958;BME280;15295;42.658;23.374;2023-05-07T09:25:04;94833.78;;;29.61;25.97
27958;BME280;15295;42.658;23.374;2023-05-07T09:27:30;94818.13;;;29.71;25.76
27958;BME280;15295;42.658;23.374;2023-05-07T09:29:55;94813.78;;;29.81;26.48
27958;BME280;15295;42.658;23.374;2023-05-07T09:32:21;94810.13;;;29.97;25.98
27958;BME280;15295;42.658;23.374;2023-05-07T09:34:46;94810.78;;;30.20;25.23
27958;BME280;15295;42.658;23.374;2023-05-07T09:37:13;94817.72;;;30.19;25.20
27958;BME280;15295;42.658;23.374;2023-05-07T09:39:46;94822.56;;;30.24;25.21
27958;BME280;15295;42.658;23.374;2023-05-07T09:42:12;94800.81;;;30.19;24.95
27958;BME280;15295;42.658;23.374;2023-05-07T09:44:38;94814.91;;;30.13;24.19
27958;BME280;15295;42.658;23.374;2023-05-07T09:47:07;94809.56;;;30.10;24.00
27958;BME280;15295;42.658;23.374;2023-05-07T09:49:37;94809.06;;;30.06;24.36
27958;BME280;15295;42.658;23.374;2023-05-07T09:52:04;94790.88;;;30.01;23.87
27958;BME280;15295;42.658;23.374;2023-05-07T09:54:36;94796.84;;;29.87;24.44
27958;BME280;15295;42.658;23.374;2023-05-07T09:57:05;94800.44;;;29.87;24.37
27958;BME280;15295;42.658;23.374;2023-05-07T09:59:32;94807.09;;;29.90;24.27
27958;BME280;15295;42.658;23.374;2023-05-07T10:02:05;94794.31;;;29.78;24.47
27958;BME280;15295;42.658;23.374;2023-05-07T10:04:32;94786.38;;;29.76;24.33
27958;BME280;15295;42.658;23.374;2023-05-07T10:06:59;94786.63;;;29.67;24.12
27958;BME280;15295;42.658;23.374;2023-05-07T10:09:26;94782.81;;;29.59;24.39
27958;BME280;15295;42.658;23.374;2023-05-07T10:11:54;94794.31;;;29.78;24.25
27958;BME280;15295;42.658;23.374;2023-05-07T10:14:20;94781.22;;;29.91;23.74
27958;BME280;15295;42.658;23.374;2023-05-07T10:16:47;94771.22;;;29.90;23.14
27958;BME280;15295;42.658;23.374;2023-05-07T10:19:14;94787.78;;;30.10;23.21
27958;BME280;15295;42.658;23.374;2023-05-07T10:21:48;94787.94;;;30.29;22.32
27958;BME280;15295;42.658;23.374;2023-05-07T10:24:26;94781.13;;;30.54;22.30
27958;BME280;15295;42.658;23.374;2023-05-07T10:26:53;94784.34;;;30.75;22.10
27958;BME280;15295;42.658;23.374;2023-05-07T10:35:24;94758.81;;;30.10;22.57
27958;BME280;15295;42.658;23.374;2023-05-07T10:37:51;94759.06;;;30.17;22.38
27958;BME280;15295;42.658;23.374;2023-05-07T10:40:17;94752.09;;;30.24;23.12
27958;BME280;15295;42.658;23.374;2023-05-07T10:43:11;94754.34;;;30.36;21.72
27958;BME280;15295;42.658;23.374;2023-05-07T10:45:37;94753.22;;;30.51;21.69
27958;BME280;15295;42.658;23.374;2023-05-07T10:50:36;94753.63;;;30.66;21.73
27958;BME280;15295;42.658;23.374;2023-05-07T10:53:38;94763.28;;;30.76;21.26
27958;BME280;15295;42.658;23.374;2023-05-07T10:56:24;94747.81;;;30.58;21.58
27958;BME280;15295;42.658;23.374;2023-05-07T10:58:50;94749.84;;;30.58;21.78
27958;BME280;15295;42.658;23.374;2023-05-07T11:04:25;94747.06;;;30.87;21.20
27958;BME280;15295;42.658;23.374;2023-05-07T11:10:13;94746.69;;;31.02;21.26
27958;BME280;15295;42.658;23.374;2023-05-07T11:13:02;94748.63;;;31.12;21.51
27958;BME280;15295;42.658;23.374;2023-05-07T11:15:38;94742.28;;;31.06;21.05
27958;BME280;15295;42.658;23.374;2023-05-07T11:18:10;94747.69;;;31.04;21.20
27958;BME280;15295;42.658;23.374;2023-05-07T11:20:56;94736.94;;;31.03;21.11
27958;BME280;15295;42.658;23.374;2023-05-07T11:26:03;94716.56;;;31.10;21.46
27958;BME280;15295;42.658;23.374;2023-05-07T11:28:29;94713.34;;;31.24;21.41
27958;BME280;15295;42.658;23.374;2023-05-07T11:31:00;94735.44;;;31.50;21.00
27958;BME280;15295;42.658;23.374;2023-05-07T11:33:26;94718.09;;;31.35;21.05
27958;BME280;15295;42.658;23.374;2023-05-07T11:35:56;94728.34;;;31.14;20.98
27958;BME280;15295;42.658;23.374;2023-05-07T11:38:21;94719.22;;;31.02;21.28
27958;BME280;15295;42.658;23.374;2023-05-07T11:40:54;94705.75;;;30.90;20.95
27958;BME280;15295;42.658;23.374;2023-05-07T11:43:22;94722.53;;;31.06;20.98
27958;BME280;15295;42.658;23.374;2023-05-07T11:45:48;94690.91;;;30.84;20.62
27958;BME280;15295;42.658;23.374;2023-05-07T11:48:16;94723.06;;;31.05;20.59
27958;BME280;15295;42.658;23.374;2023-05-07T11:51:02;94724.13;;;31.26;20.30
27958;BME280;15295;42.658;23.374;2023-05-07T11:53:39;94697.66;;;31.05;19.78
27958;BME280;15295;42.658;23.374;2023-05-07T11:56:10;94716.44;;;30.97;19.91
27958;BME280;15295;42.658;23.374;2023-05-07T11:58:36;94715.28;;;30.81;20.49
27958;BME280;15295;42.658;23.374;2023-05-07T12:01:02;94714.50;;;30.51;20.43
27958;BME280;15295;42.658;23.374;2023-05-07T12:03:43;94715.34;;;30.40;20.85
27958;BME280;15295;42.658;23.374;2023-05-07T12:06:11;94687.34;;;30.48;20.87
27958;BME280;15295;42.658;23.374;2023-05-07T12:08:38;94697.59;;;30.81;21.11
27958;BME280;15295;42.658;23.374;2023-05-07T12:11:08;94704.41;;;30.96;20.81
27958;BME280;15295;42.658;23.374;2023-05-07T12:13:36;94698.63;;;31.07;20.50
27958;BME280;15295;42.658;23.374;2023-05-07T12:21:12;94666.13;;;31.25;21.00
27958;BME280;15295;42.658;23.374;2023-05-07T12:23:39;94680.16;;;31.55;20.49
27958;BME280;15295;42.658;23.374;2023-05-07T12:26:05;94685.88;;;31.73;20.28
27958;BME280;15295;42.658;23.374;2023-05-07T12:28:36;94689.06;;;31.83;20.13
27958;BME280;15295;42.658;23.374;2023-05-07T12:31:03;94681.72;;;31.93;20.26
27958;BME280;15295;42.658;23.374;2023-05-07T12:33:30;94678.41;;;31.94;20.02
27958;BME280;15295;42.658;23.374;2023-05-07T12:38:36;94666.81;;;31.31;20.01
27958;BME280;15295;42.658;23.374;2023-05-07T12:41:02;94672.47;;;31.31;19.75
27958;BME280;15295;42.658;23.374;2023-05-07T12:43:33;94664.53;;;31.30;19.88
27958;BME280;15295;42.658;23.374;2023-05-07T12:46:17;94655.81;;;31.03;19.82
27958;BME280;15295;42.658;23.374;2023-05-07T12:48:44;94641.09;;;30.62;20.44
27958;BME280;15295;42.658;23.374;2023-05-07T12:51:12;94651.94;;;30.53;20.87
27958;BME280;15295;42.658;23.374;2023-05-07T12:53:59;94649.97;;;30.72;20.88
27958;BME280;15295;42.658;23.374;2023-05-07T12:56:24;94638.31;;;30.86;20.66
27958;BME280;15295;42.658;23.374;2023-05-07T12:58:51;94639.44;;;30.72;19.98
27958;BME280;15295;42.658;23.374;2023-05-07T13:01:19;94610.00;;;30.38;19.79
27958;BME280;15295;42.658;23.374;2023-05-07T13:03:48;94625.38;;;30.42;19.83
27958;BME280;15295;42.658;23.374;2023-05-07T13:06:19;94637.44;;;30.37;19.75
27958;BME280;15295;42.658;23.374;2023-05-07T13:08:45;94635.44;;;30.32;19.75
27958;BME280;15295;42.658;23.374;2023-05-07T13:11:26;94598.22;;;30.04;19.57
27958;BME280;15295;42.658;23.374;2023-05-07T13:13:59;94616.31;;;30.14;19.98
27958;BME280;15295;42.658;23.374;2023-05-07T13:16:24;94620.03;;;30.33;19.51
27958;BME280;15295;42.658;23.374;2023-05-07T13:18:49;94607.03;;;30.25;19.70
27958;BME280;15295;42.658;23.374;2023-05-07T13:21:18;94615.41;;;30.36;19.59
27958;BME280;15295;42.658;23.374;2023-05-07T13:23:55;94601.63;;;30.32;19.95
27958;BME280;15295;42.658;23.374;2023-05-07T13:26:20;94604.25;;;30.19;20.33
27958;BME280;15295;42.658;23.374;2023-05-07T13:28:47;94620.25;;;30.41;19.97